createdAt,value
2023-01-25T00:02:08.200Z,9.73
2023-01-25T00:04:34.838Z,10.17
2023-01-25T00:07:01.439Z,10.07
2023-01-25T00:09:28.062Z,9.96
2023-01-25T00:11:57.885Z,10.26
2023-01-25T00:14:25.073Z,10.02
2023-01-25T00:16:51.832Z,9.98
2023-01-25T00:19:18.804Z,9.92
2023-01-25T00:21:45.718Z,9.88
2023-01-25T00:24:14.188Z,9.95
2023-01-25T00:26:43.858Z,9.46
2023-01-25T00:29:14.290Z,9.18
2023-01-25T00:32:09.900Z,9.08
2023-01-25T00:34:44.309Z,9.44
2023-01-25T00:37:25.331Z,9.31
2023-01-25T00:39:52.203Z,9.46
2023-01-25T00:42:19.853Z,9.77
2023-01-25T00:44:47.771Z,9.57
2023-01-25T00:47:15.515Z,9.65
2023-01-25T00:49:43.715Z,9.61
2023-01-25T00:52:11.353Z,9.80
2023-01-25T00:54:38.520Z,9.66
2023-01-25T00:57:05.401Z,9.84
2023-01-25T00:59:32.514Z,10.03
2023-01-25T01:01:59.138Z,9.98
2023-01-25T01:04:26.180Z,9.75
2023-01-25T01:06:54.068Z,9.67
2023-01-25T01:09:22.065Z,9.95
2023-01-25T01:11:48.961Z,10.02
2023-01-25T01:15:14.521Z,9.93
2023-01-25T01:19:14.971Z,9.74
2023-01-25T01:22:18.940Z,9.64
2023-01-25T01:24:48.357Z,9.84
2023-01-25T01:27:15.033Z,9.74
2023-01-25T01:29:41.735Z,9.66
2023-01-25T01:32:08.614Z,9.81
2023-01-25T01:34:35.405Z,10.07
2023-01-25T01:37:02.002Z,10.30
2023-01-25T01:39:28.620Z,10.12
2023-01-25T01:41:55.321Z,9.50
2023-01-25T01:44:42.312Z,9.36
2023-01-25T01:47:15.744Z,9.36
2023-01-25T01:49:48.038Z,9.18
2023-01-25T01:52:20.357Z,9.33
2023-01-25T01:55:02.948Z,9.65
2023-01-25T01:57:40.827Z,9.77
2023-01-25T02:00:14.134Z,9.72
2023-01-25T02:02:42.403Z,9.44
2023-01-25T02:05:20.573Z,9.60
2023-01-25T02:07:51.669Z,9.89
2023-01-25T02:10:20.660Z,10.09
2023-01-25T02:12:48.809Z,10.16
2023-01-25T02:15:15.619Z,9.83
2023-01-25T02:17:42.669Z,9.67
2023-01-25T02:20:14.677Z,9.56
2023-01-25T02:22:53.268Z,9.60
2023-01-25T02:25:20.326Z,9.34
2023-01-25T02:28:28.983Z,9.53
2023-01-25T02:30:55.706Z,9.64
2023-01-25T02:33:25.124Z,9.77
2023-01-25T02:35:59.401Z,9.88
2023-01-25T02:38:28.055Z,9.79
2023-01-25T02:41:21.530Z,9.55
2023-01-25T02:43:48.148Z,9.52
2023-01-25T02:46:25.941Z,9.37
2023-01-25T02:48:56.365Z,9.32
2023-01-25T02:51:24.851Z,9.70
2023-01-25T02:53:52.406Z,9.83
2023-01-25T02:56:19.919Z,9.76
2023-01-25T02:58:48.113Z,9.88
2023-01-25T03:01:16.570Z,9.60
2023-01-25T03:03:43.311Z,9.78
2023-01-25T03:06:10.654Z,9.68
2023-01-25T03:08:37.555Z,9.76
2023-01-25T03:11:06.310Z,9.91
2023-01-25T03:13:35.409Z,9.85
2023-01-25T03:16:05.908Z,9.60
2023-01-25T03:18:33.736Z,9.35
2023-01-25T03:21:11.319Z,9.27
2023-01-25T03:23:39.819Z,9.66
2023-01-25T03:26:16.893Z,9.09
2023-01-25T03:29:07.533Z,8.84
2023-01-25T03:31:37.795Z,8.40
2023-01-25T03:34:04.474Z,8.19
2023-01-25T03:36:35.335Z,8.78
2023-01-25T03:39:03.213Z,9.17
2023-01-25T03:41:29.985Z,8.99
2023-01-25T03:43:59.213Z,9.09
2023-01-25T03:46:27.621Z,8.90
2023-01-25T03:48:54.413Z,8.92
2023-01-25T03:51:21.358Z,8.78
2023-01-25T03:53:48.320Z,8.62
2023-01-25T03:56:20.147Z,8.99
2023-01-25T03:59:07.988Z,8.90
2023-01-25T04:01:35.062Z,8.95
2023-01-25T04:04:02.711Z,8.97
2023-01-25T04:06:29.856Z,8.99
2023-01-25T04:08:57.326Z,8.98
2023-01-25T04:11:25.875Z,9.09
2023-01-25T04:13:52.520Z,9.30
2023-01-25T04:16:21.360Z,9.06
2023-01-25T04:19:12.005Z,8.91
2023-01-25T04:21:39.352Z,9.03
2023-01-25T04:24:06.314Z,9.52
2023-01-25T04:26:36.828Z,9.58
2023-01-25T04:29:03.830Z,9.64
2023-01-25T04:31:31.167Z,9.65
2023-01-25T04:33:58.192Z,9.63
2023-01-25T04:36:24.820Z,9.35
2023-01-25T04:38:51.783Z,9.32
2023-01-25T04:41:19.747Z,9.32
2023-01-25T04:43:46.281Z,9.46
2023-01-25T04:46:14.346Z,9.37
2023-01-25T04:48:40.926Z,9.20
2023-01-25T04:51:09.367Z,9.38
2023-01-25T04:53:35.909Z,9.30
2023-01-25T04:56:05.671Z,9.16
2023-01-25T04:58:38.039Z,8.93
2023-01-25T05:01:05.350Z,8.53
2023-01-25T05:03:32.440Z,8.51
2023-01-25T05:05:59.336Z,8.72
2023-01-25T05:08:26.739Z,8.94
2023-01-25T05:10:58.444Z,8.59
2023-01-25T05:13:25.114Z,8.94
2023-01-25T05:16:00.632Z,8.96
2023-01-25T05:18:33.135Z,9.02
2023-01-25T05:21:25.924Z,9.00
2023-01-25T05:23:53.137Z,9.11
2023-01-25T05:26:38.721Z,9.41
2023-01-25T05:29:06.611Z,9.18
2023-01-25T05:31:40.663Z,9.18
2023-01-25T05:34:09.069Z,8.96
2023-01-25T05:36:35.658Z,8.86
2023-01-25T05:39:02.221Z,8.80
2023-01-25T05:41:31.371Z,8.84
2023-01-25T05:43:58.455Z,8.76
2023-01-25T05:46:27.702Z,8.49
2023-01-25T05:48:54.596Z,8.68
2023-01-25T05:51:23.803Z,8.73
2023-01-25T05:53:50.477Z,8.37
2023-01-25T05:56:17.935Z,8.26
2023-01-25T05:58:44.538Z,8.06
2023-01-25T06:01:11.641Z,8.30
2023-01-25T06:03:46.764Z,8.26
2023-01-25T06:06:13.853Z,8.14
2023-01-25T06:08:42.071Z,8.25
2023-01-25T06:11:10.464Z,8.66
2023-01-25T06:13:41.097Z,8.48
2023-01-25T06:16:08.289Z,8.61
2023-01-25T06:18:58.101Z,8.95
2023-01-25T06:21:46.297Z,9.30
2023-01-25T06:24:12.886Z,9.16
2023-01-25T06:26:39.572Z,9.19
2023-01-25T06:29:06.877Z,9.21
2023-01-25T06:31:34.821Z,8.85
2023-01-25T06:34:04.426Z,8.58
2023-01-25T06:36:32.192Z,8.83
2023-01-25T06:38:58.767Z,8.85
2023-01-25T06:41:25.825Z,8.77
2023-01-25T06:43:53.048Z,8.87
2023-01-25T06:46:20.173Z,8.77
2023-01-25T06:48:46.799Z,8.88
2023-01-25T06:51:16.400Z,8.67
2023-01-25T06:53:44.721Z,8.31
2023-01-25T06:56:21.439Z,8.40
2023-01-25T06:58:49.026Z,8.48
2023-01-25T07:01:21.316Z,8.90
2023-01-25T07:03:53.646Z,8.71
2023-01-25T07:06:20.866Z,8.90
2023-01-25T07:08:48.185Z,9.10
2023-01-25T07:11:16.000Z,9.17
2023-01-25T07:13:45.612Z,9.19
2023-01-25T07:16:17.466Z,8.95
2023-01-25T07:18:44.476Z,8.70
2023-01-25T07:21:16.747Z,9.38
2023-01-25T07:23:44.089Z,8.43
2023-01-25T07:26:17.565Z,8.20
2023-01-25T07:28:45.850Z,8.60
2023-01-25T07:31:12.624Z,8.68
2023-01-25T07:33:39.153Z,8.84
2023-01-25T07:36:08.212Z,9.03
2023-01-25T07:38:36.267Z,8.73
2023-01-25T07:41:03.551Z,8.70
2023-01-25T07:43:30.631Z,8.42
2023-01-25T07:46:11.041Z,8.71
2023-01-25T07:48:38.396Z,8.89
2023-01-25T07:51:31.043Z,9.02
2023-01-25T07:54:03.081Z,8.72
2023-01-25T07:56:35.180Z,8.49
2023-01-25T07:59:08.044Z,8.55
2023-01-25T08:01:36.519Z,8.26
2023-01-25T08:04:04.666Z,8.26
2023-01-25T08:06:36.297Z,7.93
2023-01-25T08:09:11.036Z,7.87
2023-01-25T08:11:37.849Z,7.89
2023-01-25T08:14:04.522Z,8.08
2023-01-25T08:16:32.128Z,8.45
2023-01-25T08:19:00.950Z,8.46
2023-01-25T08:21:31.414Z,8.50
2023-01-25T08:24:04.117Z,8.82
2023-01-25T08:26:31.049Z,9.16
2023-01-25T08:28:58.291Z,8.85
2023-01-25T08:31:28.389Z,8.59
2023-01-25T08:33:55.382Z,8.55
2023-01-25T08:36:24.158Z,8.57
2023-01-25T08:38:55.820Z,8.69
2023-01-25T08:41:22.741Z,8.70
2023-01-25T08:43:52.544Z,8.59
2023-01-25T08:46:20.157Z,8.36
2023-01-25T08:48:47.928Z,8.18
2023-01-25T08:51:16.938Z,8.35
2023-01-25T08:53:43.958Z,8.41
2023-01-25T08:56:12.889Z,8.46
2023-01-25T08:58:42.062Z,8.15
2023-01-25T09:01:10.739Z,8.05
2023-01-25T09:03:46.096Z,8.12
2023-01-25T09:06:13.387Z,8.01
2023-01-25T09:08:40.304Z,8.45
2023-01-25T09:11:10.107Z,8.45
2023-01-25T09:13:36.972Z,8.60
2023-01-25T09:16:06.568Z,8.95
2023-01-25T09:18:35.353Z,8.87
2023-01-25T09:21:09.693Z,8.65
2023-01-25T09:23:50.259Z,8.44
2023-01-25T09:26:23.309Z,8.50
2023-01-25T09:28:52.456Z,8.69
2023-01-25T09:31:23.225Z,8.59
2023-01-25T09:34:08.917Z,8.88
2023-01-25T09:36:36.223Z,8.95
2023-01-25T09:39:03.379Z,8.73
2023-01-25T09:42:14.627Z,9.09
2023-01-25T09:45:07.130Z,8.99
2023-01-25T09:48:02.964Z,8.72
2023-01-25T09:50:38.341Z,8.85
2023-01-25T09:53:24.181Z,8.80
2023-01-25T09:55:54.081Z,8.85
2023-01-25T09:58:26.379Z,8.91
2023-01-25T10:01:05.853Z,8.99
2023-01-25T10:03:48.353Z,8.96
2023-01-25T10:06:17.353Z,9.30
2023-01-25T10:09:01.115Z,9.15
2023-01-25T10:11:30.671Z,8.86
2023-01-25T10:13:58.374Z,8.78
2023-01-25T10:16:46.181Z,8.36
2023-01-25T10:19:24.468Z,8.21
2023-01-25T10:22:29.901Z,8.43
2023-01-25T10:25:19.128Z,8.35
2023-01-25T10:27:50.053Z,8.50
2023-01-25T10:30:39.882Z,8.48
2023-01-25T10:33:18.009Z,8.62
2023-01-25T10:35:47.697Z,8.74
2023-01-25T10:38:23.432Z,8.85
2023-01-25T10:40:56.365Z,8.69
2023-01-25T10:43:23.361Z,8.88
2023-01-25T10:45:50.687Z,8.95
2023-01-25T10:48:24.568Z,8.96
2023-01-25T10:50:55.870Z,8.73
2023-01-25T10:53:26.671Z,8.49
2023-01-25T10:56:10.365Z,8.64
2023-01-25T10:58:39.878Z,8.65
2023-01-25T11:01:12.171Z,8.50
2023-01-25T11:03:46.917Z,8.63
2023-01-25T11:06:13.463Z,8.56
2023-01-25T11:08:42.257Z,8.34
2023-01-25T11:11:23.187Z,8.26
2023-01-25T11:13:50.321Z,8.20
2023-01-25T11:16:23.147Z,8.19
2023-01-25T11:18:52.268Z,8.23
2023-01-25T11:21:23.176Z,8.32
2023-01-25T11:24:01.668Z,8.16
2023-01-25T11:26:29.016Z,8.07
2023-01-25T11:29:12.512Z,8.10
2023-01-25T11:31:45.927Z,8.11
2023-01-25T11:34:15.848Z,8.12
2023-01-25T11:36:57.310Z,8.04
2023-01-25T11:39:47.948Z,8.16
2023-01-25T11:42:26.207Z,8.65
2023-01-25T11:45:09.720Z,8.80
2023-01-25T11:47:51.444Z,8.49
2023-01-25T11:50:36.021Z,8.14
2023-01-25T11:53:21.417Z,7.82
2023-01-25T11:56:15.047Z,8.07
2023-01-25T11:59:06.142Z,8.17
2023-01-25T12:01:41.485Z,8.25
2023-01-25T12:04:08.010Z,8.33
2023-01-25T12:06:55.568Z,8.53
2023-01-25T12:09:36.538Z,8.60
2023-01-25T12:12:18.409Z,8.62
2023-01-25T12:14:56.067Z,8.50
2023-01-25T12:17:38.607Z,8.50
2023-01-25T12:20:20.332Z,8.49
2023-01-25T12:23:21.056Z,8.71
2023-01-25T12:25:52.277Z,8.53
2023-01-25T12:28:25.458Z,8.54
2023-01-25T12:31:24.866Z,8.55
2023-01-25T12:34:05.035Z,8.53
2023-01-25T12:36:37.450Z,8.67
2023-01-25T12:39:06.398Z,8.51
2023-01-25T12:41:44.831Z,8.26
2023-01-25T12:44:23.822Z,8.35
2023-01-25T12:46:57.681Z,8.17
2023-01-25T12:49:33.512Z,8.41
2023-01-25T12:52:06.542Z,8.44
2023-01-25T12:54:38.061Z,8.43
2023-01-25T12:57:22.079Z,8.57
2023-01-25T13:00:00.646Z,8.63
2023-01-25T13:02:50.300Z,8.52
2023-01-25T13:05:48.354Z,8.41
2023-01-25T13:08:33.792Z,8.25
2023-01-25T13:11:12.620Z,8.29
2023-01-25T13:13:39.566Z,7.94
2023-01-25T13:16:28.916Z,8.28
2023-01-25T13:18:56.491Z,8.06
2023-01-25T13:21:40.199Z,8.17
2023-01-25T13:24:11.109Z,8.46
2023-01-25T13:26:49.536Z,8.63
2023-01-25T13:29:45.798Z,8.83
2023-01-25T13:32:24.518Z,8.63
2023-01-25T13:34:51.595Z,8.50
2023-01-25T13:37:20.343Z,8.66
2023-01-25T13:39:49.895Z,8.80
2023-01-25T13:42:19.651Z,8.85
2023-01-25T13:44:55.765Z,8.88
2023-01-25T13:47:43.533Z,8.61
2023-01-25T13:50:27.522Z,8.64
2023-01-25T13:53:01.606Z,8.42
2023-01-25T13:55:29.507Z,8.77
2023-01-25T13:58:19.148Z,8.69
2023-01-25T14:00:52.973Z,8.64
2023-01-25T14:03:23.144Z,8.46
2023-01-25T14:05:52.579Z,8.47
2023-01-25T14:08:20.869Z,8.19
2023-01-25T14:10:48.696Z,8.09
2023-01-25T14:13:17.361Z,8.14
2023-01-25T14:15:58.669Z,8.19
2023-01-25T14:18:32.576Z,8.04
2023-01-25T14:21:20.493Z,7.81
2023-01-25T14:23:49.012Z,7.92
2023-01-25T14:26:26.589Z,8.01
2023-01-25T14:29:01.365Z,8.46
2023-01-25T14:31:38.117Z,8.81
2023-01-25T14:34:06.148Z,8.74
2023-01-25T14:36:34.662Z,8.80
2023-01-25T14:39:03.789Z,9.17
2023-01-25T14:41:37.184Z,9.18
2023-01-25T14:44:13.473Z,9.20
2023-01-25T14:46:41.527Z,9.21
2023-01-25T14:49:25.229Z,9.22
2023-01-25T14:51:54.813Z,9.40
2023-01-25T14:54:28.108Z,9.36
2023-01-25T14:56:57.652Z,9.53
2023-01-25T14:59:27.359Z,9.30
2023-01-25T15:01:56.182Z,8.77
2023-01-25T15:04:23.395Z,8.46
2023-01-25T15:06:57.382Z,8.78
2023-01-25T15:09:34.040Z,9.12
2023-01-25T15:12:16.098Z,8.95
2023-01-25T15:14:51.088Z,8.91
2023-01-25T15:17:37.806Z,8.50
2023-01-25T15:20:04.755Z,8.43
2023-01-25T15:22:31.416Z,8.44
2023-01-25T15:24:58.704Z,8.80
2023-01-25T15:27:25.255Z,8.91
2023-01-25T15:29:51.912Z,8.98
2023-01-25T15:32:21.029Z,8.76
2023-01-25T15:34:48.300Z,8.74
2023-01-25T15:37:14.889Z,8.78
2023-01-25T15:39:41.479Z,8.54
2023-01-25T15:42:09.051Z,8.61
2023-01-25T15:44:35.625Z,8.16
2023-01-25T15:47:02.307Z,8.29
2023-01-25T15:49:31.534Z,8.12
2023-01-25T15:51:58.259Z,8.09
2023-01-25T15:54:25.014Z,8.05
2023-01-25T15:56:55.944Z,8.29
2023-01-25T15:59:22.646Z,8.19
2023-01-25T16:01:49.199Z,8.38
2023-01-25T16:04:16.028Z,8.38
2023-01-25T16:06:54.007Z,8.22
2023-01-25T16:09:22.241Z,8.20
2023-01-25T16:11:54.216Z,7.87
2023-01-25T16:14:23.441Z,7.94
2023-01-25T16:16:52.137Z,8.03
2023-01-25T16:19:21.908Z,7.96
2023-01-25T16:21:49.322Z,8.05
2023-01-25T16:24:16.231Z,8.22
2023-01-25T16:26:53.300Z,8.11
2023-01-25T16:29:20.462Z,8.35
2023-01-25T16:31:47.104Z,8.25
2023-01-25T16:34:13.959Z,8.38
2023-01-25T16:36:40.719Z,8.06
2023-01-25T16:39:21.752Z,8.06
2023-01-25T16:41:49.244Z,8.01
2023-01-25T16:44:16.454Z,7.69
2023-01-25T16:46:43.473Z,7.70
2023-01-25T16:49:22.484Z,7.85
2023-01-25T16:51:50.315Z,7.88
2023-01-25T16:54:19.765Z,7.71
2023-01-25T16:56:47.343Z,7.71
2023-01-25T16:59:13.937Z,7.69
2023-01-25T17:01:41.583Z,7.34
2023-01-25T17:04:09.176Z,7.68
2023-01-25T17:06:38.185Z,7.74
2023-01-25T17:09:21.620Z,7.51
2023-01-25T17:11:49.646Z,7.47
2023-01-25T17:14:18.660Z,7.49
2023-01-25T17:16:47.862Z,7.54
2023-01-25T17:19:15.946Z,7.55
2023-01-25T17:21:42.764Z,7.44
2023-01-25T17:24:13.318Z,7.49
2023-01-25T17:26:40.881Z,7.47
2023-01-25T17:29:10.029Z,7.47
2023-01-25T17:31:37.135Z,7.37
2023-01-25T17:34:06.414Z,7.10
2023-01-25T17:36:33.290Z,7.07
2023-01-25T17:39:05.174Z,7.11
2023-01-25T17:41:32.490Z,7.16
2023-01-25T17:43:59.385Z,7.45
2023-01-25T17:46:33.113Z,7.38
2023-01-25T17:49:02.167Z,7.14
2023-01-25T17:51:28.799Z,7.32
2023-01-25T17:53:55.436Z,7.09
2023-01-25T17:56:21.944Z,6.92
2023-01-25T17:58:48.769Z,6.70
2023-01-25T18:01:18.224Z,6.83
2023-01-25T18:03:46.590Z,6.95
2023-01-25T18:06:16.764Z,6.94
2023-01-25T18:08:48.922Z,6.80
2023-01-25T18:11:18.548Z,6.86
2023-01-25T18:13:49.939Z,6.86
2023-01-25T18:16:17.818Z,6.81
2023-01-25T18:18:45.352Z,6.81
2023-01-25T18:21:21.944Z,6.58
2023-01-25T18:23:48.766Z,6.71
2023-01-25T18:26:26.768Z,6.72
2023-01-25T18:28:55.239Z,6.49
2023-01-25T18:31:21.956Z,6.57
2023-01-25T18:33:48.543Z,6.48
2023-01-25T18:36:15.993Z,6.63
2023-01-25T18:38:42.845Z,6.57
2023-01-25T18:41:09.517Z,6.65
2023-01-25T18:43:36.113Z,6.73
2023-01-25T18:46:02.797Z,6.72
2023-01-25T18:48:32.331Z,6.58
2023-01-25T18:51:12.819Z,6.64
2023-01-25T18:53:42.219Z,6.78
2023-01-25T18:56:12.907Z,6.84
2023-01-25T18:58:39.899Z,6.86
2023-01-25T19:01:10.416Z,6.83
2023-01-25T19:03:37.139Z,7.16
2023-01-25T19:06:04.426Z,7.08
2023-01-25T19:08:33.024Z,6.97
2023-01-25T19:11:05.862Z,7.01
2023-01-25T19:13:37.204Z,7.13
2023-01-25T19:16:06.785Z,6.98
2023-01-25T19:18:39.421Z,6.88
2023-01-25T19:21:10.249Z,6.83
2023-01-25T19:23:38.668Z,6.89
2023-01-25T19:26:07.099Z,6.89
2023-01-25T19:28:38.667Z,7.14
2023-01-25T19:31:09.489Z,7.11
2023-01-25T19:33:36.713Z,7.23
2023-01-25T19:36:06.517Z,7.44
2023-01-25T19:38:38.373Z,7.32
2023-01-25T19:41:06.882Z,7.20
2023-01-25T19:43:33.521Z,7.28
2023-01-25T19:46:17.675Z,7.05
2023-01-25T19:48:46.436Z,6.88
2023-01-25T19:51:19.816Z,7.04
2023-01-25T19:53:52.775Z,7.13
2023-01-25T19:56:19.646Z,6.98
2023-01-25T19:58:47.936Z,6.95
2023-01-25T20:01:19.936Z,7.07
2023-01-25T20:03:47.263Z,7.43
2023-01-25T20:06:16.262Z,7.45
2023-01-25T20:08:44.247Z,7.26
2023-01-25T20:11:19.618Z,7.13
2023-01-25T20:13:47.023Z,7.24
2023-01-25T20:16:17.055Z,7.04
2023-01-25T20:18:45.053Z,6.97
2023-01-25T20:21:14.675Z,6.92
2023-01-25T20:23:43.465Z,7.19
2023-01-25T20:26:15.929Z,7.17
2023-01-25T20:28:44.295Z,7.23
2023-01-25T20:31:27.845Z,7.31
2023-01-25T20:33:59.543Z,7.27
2023-01-25T20:36:28.575Z,7.04
2023-01-25T20:38:56.220Z,6.90
2023-01-25T20:41:23.482Z,7.41
2023-01-25T20:44:01.972Z,7.54
2023-01-25T20:46:33.548Z,7.33
2023-01-25T20:49:01.670Z,7.81
2023-01-25T20:51:28.510Z,7.38
2023-01-25T20:53:55.573Z,7.38
2023-01-25T20:56:23.024Z,7.38
2023-01-25T20:58:50.777Z,7.62
2023-01-25T21:01:19.198Z,7.28
2023-01-25T21:03:46.051Z,7.26
2023-01-25T21:06:13.422Z,7.46
2023-01-25T21:08:40.159Z,7.56
2023-01-25T21:11:07.271Z,7.21
2023-01-25T21:13:33.938Z,7.01
2023-01-25T21:16:10.253Z,7.50
2023-01-25T21:18:39.285Z,7.74
2023-01-25T21:21:12.328Z,7.75
2023-01-25T21:23:41.218Z,7.76
2023-01-25T21:26:10.583Z,7.62
2023-01-25T21:28:37.191Z,7.48
2023-01-25T21:31:12.079Z,7.33
2023-01-25T21:33:39.283Z,7.13
2023-01-25T21:36:08.586Z,7.09
2023-01-25T21:38:36.118Z,6.96
2023-01-25T21:41:04.812Z,6.87
2023-01-25T21:43:52.600Z,7.14
2023-01-25T21:46:27.198Z,7.05
2023-01-25T21:49:18.201Z,6.97
2023-01-25T21:51:50.824Z,6.75
2023-01-25T21:54:25.572Z,6.71
2023-01-25T21:56:54.351Z,6.68
2023-01-25T21:59:21.636Z,6.83
2023-01-25T22:01:48.871Z,6.90
2023-01-25T22:04:17.148Z,6.77
2023-01-25T22:06:44.141Z,6.65
2023-01-25T22:09:13.061Z,6.87
2023-01-25T22:11:40.208Z,6.82
2023-01-25T22:14:06.815Z,6.84
2023-01-25T22:16:33.730Z,6.66
2023-01-25T22:19:00.477Z,6.52
2023-01-25T22:21:30.599Z,6.79
2023-01-25T22:23:59.063Z,6.86
2023-01-25T22:26:29.953Z,6.88
2023-01-25T22:28:58.715Z,7.05
2023-01-25T22:31:28.245Z,6.64
2023-01-25T22:33:56.461Z,6.55
2023-01-25T22:36:25.100Z,6.68
2023-01-25T22:38:51.800Z,6.70
2023-01-25T22:41:23.966Z,6.95
2023-01-25T22:43:51.329Z,6.88
2023-01-25T22:46:20.745Z,6.99
2023-01-25T22:48:47.852Z,6.90
2023-01-25T22:51:19.893Z,6.83
2023-01-25T22:53:46.595Z,7.01
2023-01-25T22:56:16.121Z,6.87
2023-01-25T22:58:44.311Z,6.80
2023-01-25T23:01:17.853Z,6.95
2023-01-25T23:03:45.064Z,6.88
2023-01-25T23:06:14.640Z,6.69
2023-01-25T23:08:41.739Z,6.60
2023-01-25T23:11:11.826Z,6.89
2023-01-25T23:13:39.794Z,6.84
2023-01-25T23:16:09.063Z,6.83
2023-01-25T23:18:51.610Z,7.10
2023-01-25T23:21:20.988Z,7.09
2023-01-25T23:23:48.702Z,7.00
2023-01-25T23:26:16.448Z,6.94
2023-01-25T23:28:43.403Z,6.95
2023-01-25T23:31:18.650Z,6.94
2023-01-25T23:33:47.307Z,6.71
2023-01-25T23:36:19.025Z,6.95
2023-01-25T23:38:46.506Z,6.95
2023-01-25T23:41:14.442Z,6.89
2023-01-25T23:43:41.500Z,7.05
2023-01-25T23:46:08.755Z,7.03
2023-01-25T23:48:35.467Z,6.83
2023-01-25T23:51:02.561Z,6.68
2023-01-25T23:53:33.128Z,6.88
2023-01-25T23:56:02.199Z,6.89
2023-01-25T23:58:29.946Z,6.90
